createdAt,value
2023-04-09T00:01:07.862Z,17.35
2023-04-09T00:03:35.583Z,16.37
2023-04-09T00:06:02.273Z,17.48
2023-04-09T00:08:28.666Z,15.93
2023-04-09T00:10:55.868Z,15.52
2023-04-09T00:13:35.530Z,16.80
2023-04-09T00:16:05.657Z,16.57
2023-04-09T00:18:32.075Z,16.25
2023-04-09T00:20:58.438Z,16.13
2023-04-09T00:23:24.829Z,16.50
2023-04-09T00:25:51.165Z,17.23
2023-04-09T00:28:17.567Z,16.43
2023-04-09T00:30:43.960Z,16.58
2023-04-09T00:33:10.456Z,15.45
2023-04-09T00:35:36.810Z,16.20
2023-04-09T00:38:03.211Z,17.27
2023-04-09T00:40:29.760Z,17.57
2023-04-09T00:42:56.933Z,17.95
2023-04-09T00:45:23.402Z,17.98
2023-04-09T00:47:50.359Z,18.48
2023-04-09T00:50:17.011Z,16.92
2023-04-09T00:52:43.641Z,17.77
2023-04-09T00:55:10.571Z,17.95
2023-04-09T00:57:37.418Z,17.85
2023-04-09T01:00:04.676Z,17.75
2023-04-09T01:02:31.468Z,17.17
2023-04-09T01:04:58.328Z,17.30
2023-04-09T01:07:54.786Z,17.15
2023-04-09T01:10:35.794Z,16.73
2023-04-09T01:13:56.387Z,16.52
2023-04-09T01:16:24.051Z,16.70
2023-04-09T01:18:56.803Z,17.10
2023-04-09T01:21:27.994Z,17.77
2023-04-09T01:24:09.933Z,17.30
2023-04-09T01:26:54.452Z,16.48
2023-04-09T01:29:22.812Z,17.85
2023-04-09T01:31:50.164Z,17.63
2023-04-09T01:34:17.660Z,15.85
2023-04-09T01:36:51.881Z,16.02
2023-04-09T01:39:18.727Z,17.58
2023-04-09T01:41:45.292Z,16.50
2023-04-09T01:44:12.759Z,17.87
2023-04-09T01:46:40.134Z,18.83
2023-04-09T01:49:07.333Z,21.10
2023-04-09T01:51:34.028Z,22.73
2023-04-09T01:54:01.109Z,22.90
2023-04-09T01:56:27.536Z,23.37
2023-04-09T01:58:54.028Z,22.98
2023-04-09T02:01:32.135Z,22.42
2023-04-09T02:04:02.321Z,22.20
2023-04-09T02:06:36.457Z,21.33
2023-04-09T02:09:06.949Z,21.07
2023-04-09T02:11:35.372Z,21.77
2023-04-09T02:14:03.515Z,22.05
2023-04-09T02:16:31.885Z,19.42
2023-04-09T02:19:01.141Z,21.48
2023-04-09T02:21:28.626Z,20.37
2023-04-09T02:23:55.881Z,20.70
2023-04-09T02:26:23.060Z,19.80
2023-04-09T02:28:49.539Z,18.58
2023-04-09T02:31:16.508Z,18.40
2023-04-09T02:33:43.144Z,20.17
2023-04-09T02:36:13.271Z,18.63
2023-04-09T02:38:42.809Z,18.20
2023-04-09T02:41:09.826Z,18.33
2023-04-09T02:43:36.483Z,17.63
2023-04-09T02:46:03.081Z,18.10
2023-04-09T02:48:29.591Z,17.95
2023-04-09T02:50:56.354Z,17.15
2023-04-09T02:53:23.279Z,18.45
2023-04-09T02:55:49.747Z,18.25
2023-04-09T02:58:16.194Z,17.63
2023-04-09T03:00:42.609Z,18.00
2023-04-09T03:03:09.104Z,17.73
2023-04-09T03:05:36.315Z,19.98
2023-04-09T03:08:02.719Z,18.65
2023-04-09T03:10:29.117Z,18.77
2023-04-09T03:12:55.545Z,18.15
2023-04-09T03:15:21.958Z,18.10
2023-04-09T03:17:48.332Z,17.58
2023-04-09T03:20:14.689Z,17.25
2023-04-09T03:22:41.041Z,17.97
2023-04-09T03:25:08.186Z,16.75
2023-04-09T03:27:34.503Z,17.60
2023-04-09T03:30:00.961Z,17.80
2023-04-09T03:32:27.401Z,17.58
2023-04-09T03:34:53.811Z,18.10
2023-04-09T03:37:20.324Z,17.30
2023-04-09T03:39:46.731Z,17.20
2023-04-09T03:42:13.156Z,15.02
2023-04-09T03:44:39.493Z,16.00
2023-04-09T03:47:06.408Z,14.57
2023-04-09T03:49:35.197Z,16.45
2023-04-09T03:52:01.725Z,17.15
2023-04-09T03:54:31.253Z,16.00
2023-04-09T03:56:57.587Z,16.10
2023-04-09T03:59:24.557Z,16.23
2023-04-09T04:01:51.073Z,16.67
2023-04-09T04:04:17.798Z,15.93
2023-04-09T04:06:44.568Z,16.92
2023-04-09T04:09:10.948Z,16.02
2023-04-09T04:11:37.345Z,16.27
2023-04-09T04:14:03.742Z,16.25
2023-04-09T04:16:30.201Z,15.75
2023-04-09T04:18:56.568Z,17.63
2023-04-09T04:21:23.041Z,16.88
2023-04-09T04:23:49.573Z,15.90
2023-04-09T04:26:15.977Z,16.27
2023-04-09T04:28:42.364Z,16.23
2023-04-09T04:31:10.691Z,15.25
2023-04-09T04:33:38.607Z,15.00
2023-04-09T04:36:06.488Z,15.13
2023-04-09T04:38:33.578Z,15.48
2023-04-09T04:41:00.046Z,15.55
2023-04-09T04:43:26.480Z,16.13
2023-04-09T04:45:53.703Z,15.07
2023-04-09T04:48:20.316Z,15.10
2023-04-09T04:50:46.672Z,16.15
2023-04-09T04:53:13.154Z,16.50
2023-04-09T04:55:39.638Z,16.23
2023-04-09T04:58:05.977Z,15.88
2023-04-09T05:00:32.621Z,15.97
2023-04-09T05:02:59.255Z,14.90
2023-04-09T05:05:25.637Z,14.70
2023-04-09T05:07:51.991Z,15.93
2023-04-09T05:10:18.497Z,16.48
2023-04-09T05:12:45.094Z,14.87
2023-04-09T05:15:11.594Z,15.23
2023-04-09T05:17:38.083Z,15.40
2023-04-09T05:20:04.806Z,15.68
2023-04-09T05:22:31.243Z,16.38
2023-04-09T05:24:57.643Z,15.83
2023-04-09T05:27:25.996Z,15.55
2023-04-09T05:29:52.408Z,15.80
2023-04-09T05:32:18.848Z,15.15
2023-04-09T05:34:45.316Z,15.20
2023-04-09T05:37:11.703Z,15.60
2023-04-09T05:39:38.080Z,15.73
2023-04-09T05:42:04.504Z,15.27
2023-04-09T05:44:30.885Z,17.10
2023-04-09T05:46:57.297Z,16.33
2023-04-09T05:49:24.316Z,17.87
2023-04-09T05:51:50.873Z,19.10
2023-04-09T05:54:17.346Z,18.98
2023-04-09T05:56:43.700Z,17.83
2023-04-09T05:59:10.064Z,19.52
2023-04-09T06:01:36.662Z,18.07
2023-04-09T06:04:03.472Z,19.77
2023-04-09T06:06:30.246Z,17.92
2023-04-09T06:08:56.672Z,18.90
2023-04-09T06:11:23.147Z,18.73
2023-04-09T06:13:49.971Z,18.43
2023-04-09T06:16:16.770Z,18.75
2023-04-09T06:18:43.226Z,20.15
2023-04-09T06:21:09.602Z,19.30
2023-04-09T06:23:36.622Z,19.35
2023-04-09T06:26:03.149Z,18.00
2023-04-09T06:28:29.743Z,17.95
2023-04-09T06:30:56.139Z,17.83
2023-04-09T06:33:22.708Z,16.63
2023-04-09T06:35:49.250Z,18.10
2023-04-09T06:38:16.241Z,16.87
2023-04-09T06:40:42.600Z,17.02
2023-04-09T06:43:09.699Z,17.70
2023-04-09T06:45:39.089Z,16.55
2023-04-09T06:48:07.276Z,15.75
2023-04-09T06:50:33.640Z,15.10
2023-04-09T06:53:00.002Z,15.18
2023-04-09T06:55:26.872Z,15.68
2023-04-09T06:57:53.365Z,15.77
2023-04-09T07:00:19.809Z,14.63
2023-04-09T07:02:46.457Z,13.90
2023-04-09T07:05:13.221Z,14.90
2023-04-09T07:07:39.731Z,14.43
2023-04-09T07:10:07.021Z,14.95
2023-04-09T07:12:37.188Z,15.35
2023-04-09T07:15:05.913Z,13.57
2023-04-09T07:17:33.064Z,15.48
2023-04-09T07:19:59.486Z,14.15
2023-04-09T07:22:27.152Z,13.77
2023-04-09T07:24:54.457Z,15.63
2023-04-09T07:27:25.034Z,14.70
2023-04-09T07:29:51.594Z,14.18
2023-04-09T07:32:18.068Z,13.50
2023-04-09T07:34:44.464Z,14.55
2023-04-09T07:37:11.325Z,14.38
2023-04-09T07:39:37.824Z,12.97
2023-04-09T07:42:05.376Z,12.80
2023-04-09T07:44:36.327Z,13.35
2023-04-09T07:47:07.624Z,13.50
2023-04-09T07:49:36.892Z,12.85
2023-04-09T07:52:04.391Z,14.40
2023-04-09T07:54:31.778Z,13.38
2023-04-09T07:56:58.526Z,12.95
2023-04-09T07:59:25.162Z,14.65
2023-04-09T08:01:51.731Z,14.68
2023-04-09T08:04:18.469Z,13.93
2023-04-09T08:06:49.873Z,13.50
2023-04-09T08:09:20.164Z,13.68
2023-04-09T08:11:47.579Z,13.40
2023-04-09T08:14:15.410Z,13.85
2023-04-09T08:16:47.059Z,13.20
2023-04-09T08:19:15.702Z,14.25
2023-04-09T08:21:43.356Z,13.90
2023-04-09T08:24:11.559Z,13.70
2023-04-09T08:26:38.880Z,15.70
2023-04-09T08:29:05.249Z,15.00
2023-04-09T08:31:31.907Z,14.77
2023-04-09T08:33:58.396Z,14.40
2023-04-09T08:36:25.873Z,14.82
2023-04-09T08:38:54.617Z,16.00
2023-04-09T08:41:24.658Z,16.87
2023-04-09T08:43:58.372Z,15.43
2023-04-09T08:46:26.409Z,15.30
2023-04-09T08:48:53.648Z,16.10
2023-04-09T08:51:24.410Z,15.10
2023-04-09T08:53:59.524Z,15.17
2023-04-09T08:56:27.858Z,16.05
2023-04-09T08:58:55.459Z,15.40
2023-04-09T09:01:27.784Z,17.00
2023-04-09T09:04:00.009Z,16.67
2023-04-09T09:06:29.930Z,16.40
2023-04-09T09:09:07.816Z,16.58
2023-04-09T09:11:44.927Z,16.75
2023-04-09T09:14:19.251Z,15.40
2023-04-09T09:16:58.133Z,18.40
2023-04-09T09:19:24.596Z,17.27
2023-04-09T09:21:58.564Z,16.30
2023-04-09T09:24:24.929Z,17.13
2023-04-09T09:26:52.171Z,16.85
2023-04-09T09:29:19.826Z,18.20
2023-04-09T09:31:49.339Z,17.13
2023-04-09T09:34:19.504Z,17.48
2023-04-09T09:36:46.171Z,16.90
2023-04-09T09:39:14.239Z,17.55
2023-04-09T09:41:43.733Z,17.15
2023-04-09T09:44:11.651Z,16.50
2023-04-09T09:46:41.364Z,16.48
2023-04-09T09:49:09.178Z,15.48
2023-04-09T09:51:40.396Z,15.38
2023-04-09T09:54:09.191Z,16.23
2023-04-09T09:56:38.152Z,16.47
2023-04-09T09:59:10.902Z,16.02
2023-04-09T10:01:37.826Z,16.52
2023-04-09T10:04:06.311Z,15.57
2023-04-09T10:06:34.556Z,15.25
2023-04-09T10:09:04.609Z,14.70
2023-04-09T10:11:35.236Z,14.95
2023-04-09T10:14:02.346Z,14.38
2023-04-09T10:16:28.906Z,14.27
2023-04-09T10:18:56.529Z,12.98
2023-04-09T10:21:42.865Z,15.10
2023-04-09T10:24:10.368Z,14.45
2023-04-09T10:26:41.602Z,13.70
2023-04-09T10:29:14.710Z,13.70
2023-04-09T10:31:48.492Z,14.65
2023-04-09T10:34:17.067Z,14.23
2023-04-09T10:36:44.996Z,14.00
2023-04-09T10:39:14.664Z,14.05
2023-04-09T10:41:42.806Z,14.68
2023-04-09T10:44:20.939Z,14.57
2023-04-09T10:46:47.567Z,14.37
2023-04-09T10:49:41.047Z,12.95
2023-04-09T10:52:12.645Z,12.77
2023-04-09T10:54:46.135Z,11.88
2023-04-09T10:57:19.739Z,13.63
2023-04-09T10:59:51.193Z,12.70
2023-04-09T11:02:35.953Z,13.45
2023-04-09T11:05:32.390Z,13.05
2023-04-09T11:08:09.528Z,12.18
2023-04-09T11:10:37.172Z,12.35
2023-04-09T11:13:03.847Z,11.03
2023-04-09T11:15:32.052Z,11.40
2023-04-09T11:17:58.635Z,12.32
2023-04-09T11:20:26.066Z,9.65
2023-04-09T11:22:55.240Z,9.13
2023-04-09T11:25:26.275Z,9.77
2023-04-09T11:27:53.459Z,9.00
2023-04-09T11:30:20.536Z,9.18
2023-04-09T11:32:47.602Z,9.23
2023-04-09T11:35:18.803Z,8.27
2023-04-09T11:37:46.991Z,8.13
2023-04-09T11:40:18.057Z,8.38
2023-04-09T11:42:45.861Z,7.82
2023-04-09T11:45:12.936Z,7.97
2023-04-09T11:47:43.406Z,8.52
2023-04-09T11:50:11.813Z,7.37
2023-04-09T11:52:38.747Z,7.38
2023-04-09T11:55:06.132Z,8.50
2023-04-09T11:57:46.804Z,6.97
2023-04-09T12:00:16.641Z,6.80
2023-04-09T12:02:49.248Z,7.13
2023-04-09T12:05:22.958Z,7.43
2023-04-09T12:07:56.246Z,7.38
2023-04-09T12:10:30.651Z,7.20
2023-04-09T12:13:03.268Z,7.45
2023-04-09T12:15:34.587Z,8.13
2023-04-09T12:18:01.538Z,7.40
2023-04-09T12:20:31.516Z,6.03
2023-04-09T12:23:00.320Z,6.70
2023-04-09T12:25:27.650Z,7.38
2023-04-09T12:27:55.698Z,7.97
2023-04-09T12:30:22.849Z,7.97
2023-04-09T12:32:49.521Z,7.70
2023-04-09T12:35:16.064Z,6.95
2023-04-09T12:37:43.068Z,6.88
2023-04-09T12:40:09.777Z,6.83
2023-04-09T12:42:36.171Z,7.72
2023-04-09T12:45:02.593Z,8.13
2023-04-09T12:47:29.075Z,7.97
2023-04-09T12:49:55.713Z,7.18
2023-04-09T12:52:22.596Z,8.20
2023-04-09T12:54:49.115Z,8.25
2023-04-09T12:57:15.530Z,8.20
2023-04-09T12:59:41.888Z,7.53
2023-04-09T13:02:08.492Z,8.18
2023-04-09T13:04:35.137Z,7.80
2023-04-09T13:07:01.650Z,7.30
2023-04-09T13:09:28.047Z,7.68
2023-04-09T13:11:56.026Z,8.32
2023-04-09T13:14:22.357Z,8.52
2023-04-09T13:16:49.949Z,8.20
2023-04-09T13:19:16.463Z,6.97
2023-04-09T13:21:42.853Z,9.07
2023-04-09T13:24:09.234Z,7.82
2023-04-09T13:26:35.757Z,8.65
2023-04-09T13:29:02.262Z,8.80
2023-04-09T13:31:28.671Z,7.53
2023-04-09T13:33:55.114Z,7.20
2023-04-09T13:36:21.501Z,8.07
2023-04-09T13:38:48.835Z,7.30
2023-04-09T13:41:15.472Z,7.40
2023-04-09T13:43:41.893Z,7.30
2023-04-09T13:46:08.289Z,6.90
2023-04-09T13:48:34.694Z,7.30
2023-04-09T13:51:01.373Z,7.15
2023-04-09T13:53:27.716Z,7.17
2023-04-09T13:55:54.101Z,6.72
2023-04-09T13:58:22.449Z,7.70
2023-04-09T14:00:48.784Z,7.72
2023-04-09T14:03:16.364Z,8.10
2023-04-09T14:05:42.991Z,6.67
2023-04-09T14:08:09.452Z,7.18
2023-04-09T14:10:36.230Z,7.07
2023-04-09T14:13:06.453Z,6.43
2023-04-09T14:15:34.880Z,7.15
2023-04-09T14:18:01.338Z,7.10
2023-04-09T14:20:28.040Z,6.40
2023-04-09T14:22:54.498Z,6.38
2023-04-09T14:25:20.959Z,6.38
2023-04-09T14:27:47.349Z,6.35
2023-04-09T14:30:13.857Z,7.10
2023-04-09T14:32:40.320Z,8.00
2023-04-09T14:35:06.934Z,8.25
2023-04-09T14:37:33.307Z,7.47
2023-04-09T14:39:59.689Z,7.88
2023-04-09T14:42:26.075Z,6.67
2023-04-09T14:44:52.493Z,7.80
2023-04-09T14:47:18.831Z,7.47
2023-04-09T14:49:45.263Z,7.28
2023-04-09T14:52:11.627Z,7.57
2023-04-09T14:54:38.032Z,7.60
2023-04-09T14:57:04.388Z,7.72
2023-04-09T14:59:30.797Z,7.43
2023-04-09T15:01:57.389Z,7.82
2023-04-09T15:04:23.925Z,7.78
2023-04-09T15:06:50.321Z,8.53
2023-04-09T15:09:17.217Z,8.25
2023-04-09T15:11:43.582Z,7.68
2023-04-09T15:14:10.311Z,7.97
2023-04-09T15:16:39.675Z,8.15
2023-04-09T15:19:06.100Z,6.83
2023-04-09T15:21:32.549Z,7.72
2023-04-09T15:23:59.110Z,7.25
2023-04-09T15:26:27.278Z,7.85
2023-04-09T15:29:06.356Z,8.10
2023-04-09T15:31:33.603Z,7.43
2023-04-09T15:34:00.450Z,9.18
2023-04-09T15:36:29.064Z,8.50
2023-04-09T15:38:55.848Z,7.70
2023-04-09T15:41:23.912Z,6.32
2023-04-09T15:43:51.599Z,7.47
2023-04-09T15:46:18.427Z,6.97
2023-04-09T15:48:45.367Z,7.28
2023-04-09T15:51:11.877Z,7.07
2023-04-09T15:53:38.900Z,7.47
2023-04-09T15:56:05.781Z,6.17
2023-04-09T15:58:32.572Z,6.50
2023-04-09T16:00:59.027Z,7.05
2023-04-09T16:03:25.768Z,6.82
2023-04-09T16:05:52.172Z,6.95
2023-04-09T16:08:18.496Z,6.77
2023-04-09T16:10:44.851Z,7.43
2023-04-09T16:13:11.292Z,7.35
2023-04-09T16:15:37.736Z,6.80
2023-04-09T16:18:04.592Z,6.97
2023-04-09T16:20:31.625Z,6.70
2023-04-09T16:22:58.017Z,7.25
2023-04-09T16:25:24.488Z,7.00
2023-04-09T16:27:50.891Z,6.65
2023-04-09T16:30:17.210Z,5.70
2023-04-09T16:32:43.605Z,6.97
2023-04-09T16:35:10.008Z,5.90
2023-04-09T16:37:36.401Z,5.63
2023-04-09T16:40:02.936Z,6.60
2023-04-09T16:42:30.296Z,7.07
2023-04-09T16:44:56.770Z,7.13
2023-04-09T16:47:23.221Z,7.18
2023-04-09T16:49:49.581Z,6.32
2023-04-09T16:52:15.921Z,7.45
2023-04-09T16:54:42.291Z,6.53
2023-04-09T16:57:08.727Z,7.30
2023-04-09T16:59:35.437Z,6.93
2023-04-09T17:02:01.883Z,8.38
2023-04-09T17:04:28.367Z,7.28
2023-04-09T17:06:55.130Z,6.95
2023-04-09T17:09:21.517Z,7.30
2023-04-09T17:11:47.939Z,7.75
2023-04-09T17:14:14.370Z,7.63
2023-04-09T17:16:41.354Z,8.30
2023-04-09T17:19:08.869Z,7.28
2023-04-09T17:21:35.510Z,7.77
2023-04-09T17:24:02.955Z,7.10
2023-04-09T17:26:29.577Z,7.03
2023-04-09T17:28:56.202Z,6.93
2023-04-09T17:31:24.280Z,7.55
2023-04-09T17:33:50.850Z,8.07
2023-04-09T17:36:18.992Z,8.07
2023-04-09T17:38:47.277Z,7.78
2023-04-09T17:41:13.659Z,7.35
2023-04-09T17:43:40.049Z,8.38
2023-04-09T17:46:08.568Z,7.47
2023-04-09T17:48:37.864Z,7.40
2023-04-09T17:51:05.546Z,7.38
2023-04-09T17:53:32.016Z,8.25
2023-04-09T17:55:58.421Z,8.70
2023-04-09T17:58:24.982Z,8.40
2023-04-09T18:00:52.790Z,8.05
2023-04-09T18:03:19.434Z,8.07
2023-04-09T18:05:46.439Z,8.43
2023-04-09T18:08:13.347Z,7.88
2023-04-09T18:10:39.796Z,7.67
2023-04-09T18:13:06.269Z,7.32
2023-04-09T18:15:32.657Z,7.95
2023-04-09T18:17:59.416Z,7.88
2023-04-09T18:20:26.255Z,8.10
2023-04-09T18:22:52.576Z,7.43
2023-04-09T18:25:19.002Z,7.72
2023-04-09T18:27:45.402Z,8.15
2023-04-09T18:30:11.879Z,7.53
2023-04-09T18:32:38.317Z,7.50
2023-04-09T18:35:05.071Z,7.80
2023-04-09T18:37:31.484Z,7.32
2023-04-09T18:39:58.834Z,8.10
2023-04-09T18:42:26.540Z,8.73
2023-04-09T18:44:52.873Z,10.88
2023-04-09T18:47:19.438Z,10.87
2023-04-09T18:49:46.362Z,10.32
2023-04-09T18:52:12.716Z,9.68
2023-04-09T18:54:39.195Z,9.48
2023-04-09T18:57:05.652Z,9.95
2023-04-09T18:59:33.509Z,9.20
2023-04-09T19:02:00.592Z,10.18
2023-04-09T19:04:28.126Z,10.63
2023-04-09T19:06:54.872Z,10.13
2023-04-09T19:09:21.596Z,9.57
2023-04-09T19:11:48.078Z,9.30
2023-04-09T19:14:14.504Z,8.90
2023-04-09T19:16:41.036Z,9.13
2023-04-09T19:19:07.474Z,8.75
2023-04-09T19:21:35.200Z,9.05
2023-04-09T19:24:03.785Z,7.93
2023-04-09T19:26:31.952Z,8.65
2023-04-09T19:28:58.294Z,8.55
2023-04-09T19:31:24.678Z,9.43
2023-04-09T19:33:51.693Z,9.20
2023-04-09T19:36:18.048Z,9.60
2023-04-09T19:38:44.501Z,9.38
2023-04-09T19:41:10.874Z,10.70
2023-04-09T19:43:39.169Z,10.68
2023-04-09T19:46:08.286Z,11.20
2023-04-09T19:48:35.698Z,11.40
2023-04-09T19:51:02.248Z,12.13
2023-04-09T19:53:28.781Z,11.50
2023-04-09T19:55:55.319Z,11.23
2023-04-09T19:58:21.696Z,12.43
2023-04-09T20:00:48.149Z,10.80
2023-04-09T20:03:14.762Z,10.30
2023-04-09T20:05:41.468Z,10.52
2023-04-09T20:08:12.265Z,10.15
2023-04-09T20:10:42.641Z,10.00
2023-04-09T20:13:09.082Z,10.50
2023-04-09T20:15:35.489Z,9.70
2023-04-09T20:18:01.997Z,11.10
2023-04-09T20:20:28.397Z,11.35
2023-04-09T20:22:56.252Z,11.75
2023-04-09T20:25:23.957Z,11.00
2023-04-09T20:27:53.028Z,12.05
2023-04-09T20:30:19.822Z,11.43
2023-04-09T20:32:46.291Z,13.15
2023-04-09T20:35:14.168Z,12.18
2023-04-09T20:37:40.724Z,12.23
2023-04-09T20:40:07.702Z,12.30
2023-04-09T20:42:34.035Z,12.23
2023-04-09T20:45:01.751Z,12.73
2023-04-09T20:47:28.543Z,12.40
2023-04-09T20:49:59.537Z,12.60
2023-04-09T20:52:28.373Z,12.38
2023-04-09T20:54:55.363Z,12.15
2023-04-09T20:57:22.136Z,12.15
2023-04-09T20:59:50.035Z,11.52
2023-04-09T21:02:17.492Z,10.53
2023-04-09T21:04:43.968Z,11.13
2023-04-09T21:07:10.348Z,10.50
2023-04-09T21:09:36.804Z,10.80
2023-04-09T21:12:03.256Z,10.60
2023-04-09T21:14:29.849Z,10.20
2023-04-09T21:16:56.316Z,9.93
2023-04-09T21:19:22.805Z,10.57
2023-04-09T21:21:49.540Z,10.13
2023-04-09T21:24:16.422Z,11.35
2023-04-09T21:26:50.335Z,9.57
2023-04-09T21:29:19.888Z,10.23
2023-04-09T21:31:46.363Z,10.30
2023-04-09T21:34:12.730Z,10.15
2023-04-09T21:36:39.811Z,10.77
2023-04-09T21:39:06.153Z,10.57
2023-04-09T21:41:32.608Z,10.88
2023-04-09T21:44:03.460Z,10.20
2023-04-09T21:46:29.942Z,9.73
2023-04-09T21:48:56.399Z,10.93
2023-04-09T21:51:22.769Z,11.00
2023-04-09T21:53:49.712Z,11.07
2023-04-09T21:56:16.116Z,11.32
2023-04-09T21:58:42.508Z,10.90
2023-04-09T22:01:15.846Z,10.95
2023-04-09T22:03:49.023Z,10.83
2023-04-09T22:06:15.421Z,11.63
2023-04-09T22:08:54.985Z,11.65
2023-04-09T22:11:27.760Z,11.30
2023-04-09T22:13:56.712Z,10.77
2023-04-09T22:16:23.673Z,10.97
2023-04-09T22:18:50.235Z,11.70
2023-04-09T22:21:17.014Z,11.35
2023-04-09T22:23:43.912Z,11.13
2023-04-09T22:26:10.740Z,12.48
2023-04-09T22:28:37.189Z,12.33
2023-04-09T22:31:03.766Z,12.52
2023-04-09T22:33:30.347Z,11.93
2023-04-09T22:35:56.736Z,11.55
2023-04-09T22:38:23.247Z,12.07
2023-04-09T22:40:49.827Z,11.83
2023-04-09T22:43:17.314Z,10.73
2023-04-09T22:45:51.484Z,12.30
2023-04-09T22:48:18.864Z,12.27
2023-04-09T22:50:45.833Z,12.18
2023-04-09T22:53:12.825Z,12.50
2023-04-09T22:55:39.179Z,12.00
2023-04-09T22:58:05.518Z,12.55
2023-04-09T23:00:31.944Z,11.43
2023-04-09T23:02:58.610Z,11.82
2023-04-09T23:05:25.358Z,13.07
2023-04-09T23:07:52.308Z,12.57
2023-04-09T23:10:18.731Z,12.23
2023-04-09T23:12:45.172Z,12.50
2023-04-09T23:15:11.824Z,12.63
2023-04-09T23:17:38.332Z,12.77
2023-04-09T23:20:06.774Z,13.07
2023-04-09T23:22:33.288Z,12.50
2023-04-09T23:24:59.652Z,12.02
2023-04-09T23:27:28.594Z,14.00
2023-04-09T23:29:56.669Z,11.87
2023-04-09T23:32:23.087Z,12.25
2023-04-09T23:34:50.372Z,12.05
2023-04-09T23:37:17.201Z,12.55
2023-04-09T23:39:43.670Z,12.52
2023-04-09T23:42:10.343Z,11.93
2023-04-09T23:44:36.743Z,12.07
2023-04-09T23:47:05.819Z,13.05
2023-04-09T23:49:32.369Z,12.63
2023-04-09T23:51:58.788Z,12.43
2023-04-09T23:54:25.152Z,11.63
2023-04-09T23:56:51.643Z,12.50
2023-04-09T23:59:18.054Z,12.05
